Time;durP1;ratioP1;P1;durP2;ratioP2;P2;SDS_P1;SDS_P2;PMS_P1;PMS_P2;Temp;Humidity;BMP_temperature;BMP_pressure;BME280_temperature;BME280_humidity;BME280_pressure;Samples;Min_cycle;Max_cycle;Signal;HPM_P1;HPM_P2
2022/04/06 00:01:57;;;;;;;9.40;7.90;;;;;;;7.78;88.66;99161.23;1651105;86;21552;-74
2022/04/06 00:04:25;;;;;;;8.97;8.07;;;;;;;7.80;88.67;99159.88;1651070;87;21046;-75
2022/04/06 00:06:53;;;;;;;8.70;7.80;;;;;;;7.83;88.79;99168.41;1650949;87;21030;-75
2022/04/06 00:09:22;;;;;;;8.80;7.77;;;;;;;7.87;88.70;99164.34;1651256;86;21520;-75
2022/04/06 00:11:50;;;;;;;8.17;7.37;;;;;;;7.90;88.80;99182.47;1651094;86;21148;-75
2022/04/06 00:14:18;;;;;;;8.57;7.67;;;;;;;7.92;88.70;99170.20;1650803;87;21588;-75
2022/04/06 00:16:45;;;;;;;8.80;7.87;;;;;;;7.95;88.74;99173.98;1651132;86;21539;-75
2022/04/06 00:19:14;;;;;;;8.07;7.27;;;;;;;7.95;88.70;99174.84;1690542;84;21082;-75
2022/04/06 00:21:41;;;;;;;7.73;6.93;;;;;;;7.96;88.74;99173.92;1702570;84;21171;-75
2022/04/06 00:24:09;;;;;;;7.80;6.83;;;;;;;7.98;88.70;99182.96;1675176;85;21222;-76
2022/04/06 00:26:37;;;;;;;7.43;6.73;;;;;;;7.99;88.83;99183.38;1687176;85;20988;-75
2022/04/06 00:29:04;;;;;;;8.83;7.53;;;;;;;8.01;88.74;99189.38;1687342;84;21039;-75
2022/04/06 00:31:31;;;;;;;8.70;6.87;;;;;;;8.01;88.77;99175.02;1675180;85;21536;-75
2022/04/06 00:33:59;;;;;;;8.23;7.10;;;;;;;8.01;88.79;99179.78;1687247;85;21473;-75
2022/04/06 00:36:26;;;;;;;7.50;6.80;;;;;;;8.03;88.84;99186.22;1687242;85;21151;-75
2022/04/06 00:38:53;;;;;;;8.07;7.20;;;;;;;8.04;88.83;99181.41;1687239;85;21476;-75
2022/04/06 00:41:21;;;;;;;8.23;6.90;;;;;;;8.05;88.90;99183.08;1687234;85;21091;-75
2022/04/06 00:44:18;;;;;;;6.70;6.00;;;;;;;8.05;88.86;99187.00;1687209;85;21052;-75
2022/04/06 00:46:46;;;;;;;9.87;6.87;;;;;;;8.05;88.81;99182.62;1687520;84;21087;-74
2022/04/06 00:49:14;;;;;;;7.17;6.20;;;;;;;8.07;88.77;99184.33;1675324;85;21200;-75
2022/04/06 00:51:48;;;;;;;7.57;6.77;;;;;;;8.08;88.88;99185.55;1687429;85;21091;-75
2022/04/06 00:54:19;;;;;;;7.07;6.10;;;;;;;8.08;88.81;99182.09;1687241;85;21031;-75
2022/04/06 00:56:47;;;;;;;6.90;6.20;;;;;;;8.08;88.85;99182.94;1687579;85;21055;-74
2022/04/06 00:59:17;;;;;;;7.13;6.40;;;;;;;8.08;88.84;99176.41;1687268;85;21497;-75
2022/04/06 01:01:48;;;;;;;7.40;6.60;;;;;;;8.10;88.83;99185.49;1687584;85;21063;-75
2022/04/06 01:04:17;;;;;;;7.00;6.30;;;;;;;8.10;88.98;99181.11;1687183;85;21012;-75
2022/04/06 01:06:53;;;;;;;7.20;6.30;;;;;;;8.13;89.01;99187.95;1687291;84;21035;-77
2022/04/06 01:09:22;;;;;;;6.57;5.90;;;;;;;8.13;88.95;99189.27;1687267;85;22109;-74
2022/04/06 01:11:54;;;;;;;8.27;6.23;;;;;;;8.14;89.09;99187.87;1687491;84;21032;-75
2022/04/06 01:14:23;;;;;;;7.20;6.50;;;;;;;8.15;89.06;99192.66;1687233;85;21148;-76
2022/04/06 01:16:58;;;;;;;7.90;7.13;;;;;;;8.14;89.11;99193.09;1687429;84;21051;-77
2022/04/06 01:19:39;;;;;;;8.43;7.10;;;;;;;8.14;89.16;99190.48;1683439;84;21020;-76
2022/04/06 01:22:14;;;;;;;7.95;7.15;;;;;;;8.12;89.21;99184.51;1682010;85;21001;-77
2022/04/06 01:24:43;;;;;;;8.20;7.30;;;;;;;8.10;89.27;99183.72;1680805;85;21023;-78
2022/04/06 01:27:10;;;;;;;7.50;6.80;;;;;;;8.10;89.30;99189.41;1682117;85;21138;-78
2022/04/06 01:29:40;;;;;;;8.00;7.20;;;;;;;8.08;89.47;99186.02;1681962;85;21071;-78
2022/04/06 01:32:15;;;;;;;7.07;6.37;;;;;;;8.07;89.51;99187.78;1682134;85;21043;-78
2022/04/06 01:34:43;;;;;;;7.20;6.50;;;;;;;8.06;89.49;99189.98;1682312;85;21435;-78
2022/04/06 01:37:12;;;;;;;7.67;6.90;;;;;;;8.05;89.46;99188.30;1682387;85;21402;-77
2022/04/06 01:39:43;;;;;;;8.43;7.37;;;;;;;8.06;89.49;99184.77;1682222;85;21130;-77
2022/04/06 01:42:17;;;;;;;7.80;6.87;;;;;;;8.06;89.56;99174.33;1682194;85;28107;-77
2022/04/06 01:44:45;;;;;;;8.30;7.43;;;;;;;8.05;89.58;99182.62;1682369;85;21016;-78
2022/04/06 01:47:15;;;;;;;10.63;8.03;;;;;;;8.05;89.61;99184.39;1682615;85;21036;-77
2022/04/06 01:52:29;;;;;;;8.73;7.77;;;;;;;8.07;89.68;99185.64;1682156;85;21154;-79
2022/04/06 01:55:07;;;;;;;9.67;8.67;;;;;;;8.06;89.67;99186.07;1682223;85;21059;-77
2022/04/06 01:57:35;;;;;;;9.97;8.70;;;;;;;8.06;89.65;99193.90;1682282;85;21012;-77
2022/04/06 02:00:07;;;;;;;9.60;8.60;;;;;;;8.06;89.77;99192.59;1682326;85;21004;-77
2022/04/06 02:02:38;;;;;;;10.07;8.63;;;;;;;8.07;89.67;99193.47;1681009;85;21027;-77
2022/04/06 02:05:06;;;;;;;9.37;8.37;;;;;;;8.07;89.82;99185.17;1682300;85;21144;-77
2022/04/06 02:07:33;;;;;;;9.47;8.57;;;;;;;8.09;89.92;99191.61;1682202;85;21473;-77
2022/04/06 02:10:02;;;;;;;9.17;8.20;;;;;;;8.08;89.85;99188.62;1682240;85;21012;-78
2022/04/06 02:12:30;;;;;;;9.40;8.40;;;;;;;8.09;89.75;99192.91;1682105;85;21088;-76
2022/04/06 02:14:57;;;;;;;9.03;8.13;;;;;;;8.10;89.85;99194.63;1682163;85;21044;-77
2022/04/06 02:17:28;;;;;;;9.63;8.43;;;;;;;8.09;90.00;99196.36;1682468;85;21474;-77
2022/04/06 02:19:56;;;;;;;10.17;9.07;;;;;;;8.10;90.02;99198.08;1686040;84;21039;-76
2022/04/06 02:22:24;;;;;;;9.90;8.90;;;;;;;8.11;89.89;99197.15;1687470;84;21500;-76
2022/04/06 02:24:52;;;;;;;10.90;9.37;;;;;;;8.09;89.87;99202.89;1687944;85;21094;-76
2022/04/06 02:27:19;;;;;;;10.30;9.20;;;;;;;8.10;89.92;99206.38;1675361;85;21046;-77
2022/04/06 02:29:46;;;;;;;11.50;9.57;;;;;;;8.11;89.95;99204.98;1687307;85;22227;-77
2022/04/06 02:32:13;;;;;;;9.70;8.70;;;;;;;8.10;90.04;99197.23;1687300;85;21027;-76
2022/04/06 02:34:40;;;;;;;9.53;8.43;;;;;;;8.11;89.99;99205.44;1687270;85;21070;-76
2022/04/06 02:37:10;;;;;;;9.53;8.50;;;;;;;8.11;90.01;99202.83;1687345;85;21035;-77
2022/04/06 02:39:37;;;;;;;10.90;9.10;;;;;;;8.10;89.99;99198.08;1687377;85;21023;-76
2022/04/06 02:42:06;;;;;;;10.37;9.07;;;;;;;8.11;89.96;99208.05;1687204;85;21309;-77
2022/04/06 02:44:33;;;;;;;9.73;8.73;;;;;;;8.10;90.08;99192.86;1687272;85;21536;-76
2022/04/06 02:47:00;;;;;;;10.60;9.27;;;;;;;8.10;90.07;99195.93;1687315;85;21015;-77
2022/04/06 02:49:28;;;;;;;10.47;8.40;;;;;;;8.08;90.07;99197.76;1687454;85;21588;-77
2022/04/06 02:51:55;;;;;;;9.67;8.57;;;;;;;8.05;90.07;99180.02;1687269;85;22214;-77
2022/04/06 02:54:22;;;;;;;10.00;8.93;;;;;;;8.04;90.21;99185.31;1687567;85;21957;-77
2022/04/06 02:56:50;;;;;;;9.70;8.60;;;;;;;8.01;90.25;99175.02;1687157;85;21040;-77
2022/04/06 02:59:17;;;;;;;11.77;9.00;;;;;;;7.98;90.28;99180.36;1687588;84;21035;-77
2022/04/06 03:01:43;;;;;;;9.63;8.63;;;;;;;7.97;90.39;99178.67;1687226;85;21083;-77
2022/04/06 03:04:10;;;;;;;8.87;7.80;;;;;;;7.96;90.45;99169.16;1687586;84;21048;-77
2022/04/06 03:06:38;;;;;;;8.97;8.07;;;;;;;7.94;90.42;99173.60;1687199;85;21174;-77
2022/04/06 03:09:05;;;;;;;8.70;7.80;;;;;;;7.94;90.61;99172.30;1675404;85;21094;-77
2022/04/06 03:11:32;;;;;;;9.33;7.77;;;;;;;7.94;90.75;99179.66;1687221;85;21015;-76
2022/04/06 03:13:59;;;;;;;8.77;7.87;;;;;;;7.93;90.67;99172.76;1687462;85;21047;-77
2022/04/06 03:16:27;;;;;;;9.27;7.83;;;;;;;7.94;90.77;99182.27;1687273;85;21051;-76
2022/04/06 03:18:54;;;;;;;8.33;7.47;;;;;;;7.94;90.85;99178.36;1686248;84;21028;-76
2022/04/06 03:21:21;;;;;;;10.40;7.93;;;;;;;7.97;90.88;99181.28;1681909;85;21039;-76
2022/04/06 03:23:48;;;;;;;8.33;7.43;;;;;;;7.98;90.99;99178.62;1682078;85;21024;-76
2022/04/06 03:26:15;;;;;;;9.37;7.60;;;;;;;7.99;91.03;99170.33;1681983;85;21012;-76
2022/04/06 03:28:43;;;;;;;7.97;7.17;;;;;;;8.00;91.03;99181.98;1682088;85;21052;-76
2022/04/06 03:31:10;;;;;;;8.23;7.43;;;;;;;8.02;91.10;99178.85;1682039;85;21459;-76
2022/04/06 03:33:37;;;;;;;7.30;6.30;;;;;;;8.02;91.09;99185.37;1682103;85;22216;-79
2022/04/06 03:36:05;;;;;;;7.53;6.60;;;;;;;8.05;91.18;99181.78;1682060;85;21502;-76
2022/04/06 03:38:33;;;;;;;7.87;6.63;;;;;;;8.05;91.14;99182.62;1681963;85;21099;-76
2022/04/06 03:41:00;;;;;;;7.70;6.90;;;;;;;8.08;91.15;99178.19;1682085;85;21004;-76
2022/04/06 03:43:27;;;;;;;7.17;6.43;;;;;;;8.09;91.18;99189.00;1682109;85;21138;-76
2022/04/06 03:45:54;;;;;;;7.07;6.07;;;;;;;8.09;91.13;99185.92;1681950;85;21008;-75
2022/04/06 03:48:22;;;;;;;9.07;6.83;;;;;;;8.09;91.12;99184.62;1682114;85;21541;-76
2022/04/06 03:50:55;;;;;;;6.83;5.77;;;;;;;8.11;91.27;99192.39;1682110;85;21513;-76
2022/04/06 03:53:22;;;;;;;6.53;5.63;;;;;;;8.12;91.26;99177.98;1682379;85;21489;-77
2022/04/06 03:55:49;;;;;;;7.23;5.90;;;;;;;8.13;91.22;99180.13;1681999;85;21208;-77
2022/04/06 03:58:18;;;;;;;7.70;6.37;;;;;;;8.13;91.24;99184.05;1682329;85;21020;-76
2022/04/06 04:00:45;;;;;;;7.77;5.73;;;;;;;8.14;91.25;99185.26;1681955;85;21039;-77
2022/04/06 04:03:13;;;;;;;7.33;6.27;;;;;;;8.14;91.33;99181.81;1682291;85;20997;-76
2022/04/06 04:05:42;;;;;;;7.30;5.83;;;;;;;8.12;91.32;99183.63;1682133;85;21024;-77
2022/04/06 04:08:09;;;;;;;6.63;5.60;;;;;;;8.11;91.41;99180.19;1682363;85;21734;-77
2022/04/06 04:10:36;;;;;;;5.97;5.20;;;;;;;8.11;91.46;99182.80;1681931;85;21083;-77
2022/04/06 04:13:03;;;;;;;7.17;6.23;;;;;;;8.11;91.55;99184.09;1682357;85;21061;-78
2022/04/06 04:15:31;;;;;;;7.83;6.97;;;;;;;8.10;91.53;99182.42;1682055;85;21008;-78
2022/04/06 04:17:59;;;;;;;9.20;6.93;;;;;;;8.09;91.52;99184.62;1682092;85;21538;-79
2022/04/06 04:20:26;;;;;;;8.77;7.73;;;;;;;8.06;91.57;99184.77;1681919;84;21131;-77
2022/04/06 04:22:53;;;;;;;9.20;7.50;;;;;;;8.05;91.46;99177.40;1682000;85;21031;-77
2022/04/06 04:25:20;;;;;;;9.97;8.40;;;;;;;8.05;91.62;99187.00;1682373;85;21068;-77
2022/04/06 04:27:47;;;;;;;9.87;8.10;;;;;;;8.04;91.56;99189.23;1682141;85;21032;-77
2022/04/06 04:30:14;;;;;;;10.57;8.77;;;;;;;8.02;91.70;99182.77;1682223;85;21005;-80
2022/04/06 04:32:41;;;;;;;9.87;8.87;;;;;;;8.03;91.75;99198.80;1682209;85;21098;-78
2022/04/06 04:35:09;;;;;;;12.80;9.77;;;;;;;8.02;91.70;99191.89;1682214;85;21012;-77
2022/04/06 04:37:36;;;;;;;11.20;9.40;;;;;;;8.03;91.86;99187.52;1682110;85;21009;-77
2022/04/06 04:40:06;;;;;;;11.67;10.23;;;;;;;8.03;91.75;99186.22;1682235;85;21048;-77
2022/04/06 04:42:33;;;;;;;12.37;10.23;;;;;;;8.02;91.83;99189.75;1696968;84;21074;-77
2022/04/06 04:45:00;;;;;;;12.93;10.63;;;;;;;8.01;91.95;99188.91;1697180;84;21127;-77
2022/04/06 04:47:27;;;;;;;11.43;9.83;;;;;;;8.01;91.96;99186.30;1696842;84;21016;-77
2022/04/06 04:49:54;;;;;;;12.77;11.00;;;;;;;8.01;91.98;99194.59;1668118;86;21593;-77
2022/04/06 04:52:22;;;;;;;14.20;11.50;;;;;;;8.02;92.06;99196.27;1695457;84;21532;-77
2022/04/06 04:54:49;;;;;;;11.87;10.60;;;;;;;8.00;92.13;99188.97;1681706;84;21044;-76
2022/04/06 04:57:16;;;;;;;14.03;10.00;;;;;;;8.01;92.16;99197.20;1700540;84;21140;-76
2022/04/06 04:59:43;;;;;;;12.50;10.87;;;;;;;8.00;92.22;99196.33;1700224;84;21074;-77
2022/04/06 05:02:10;;;;;;;12.20;10.47;;;;;;;8.02;92.33;99202.33;1700039;84;20991;-76
2022/04/06 05:04:36;;;;;;;11.53;9.70;;;;;;;8.03;92.30;99213.61;1700214;84;21039;-76
2022/04/06 05:07:04;;;;;;;12.03;10.17;;;;;;;8.04;92.43;99199.20;1700244;84;21559;-77
2022/04/06 05:09:31;;;;;;;11.67;9.83;;;;;;;8.05;92.43;99197.44;1683249;83;21128;-77
2022/04/06 05:11:58;;;;;;;11.43;9.23;;;;;;;8.06;92.44;99203.03;1670930;85;20997;-77
2022/04/06 05:14:27;;;;;;;10.90;9.60;;;;;;;8.07;92.57;99202.14;1669369;86;21096;-76
2022/04/06 05:16:54;;;;;;;12.33;9.70;;;;;;;8.10;92.57;99212.89;1668525;86;21004;-78
2022/04/06 05:19:21;;;;;;;10.60;9.50;;;;;;;8.11;92.66;99195.84;1667745;84;21118;-76
2022/04/06 05:21:48;;;;;;;12.60;9.97;;;;;;;8.12;92.78;99207.99;1700628;84;21136;-76
2022/04/06 05:24:15;;;;;;;11.23;9.33;;;;;;;8.15;92.79;99208.31;1700758;84;21083;-77
2022/04/06 05:26:42;;;;;;;12.87;10.30;;;;;;;8.16;92.79;99206.92;1700807;84;21027;-76
2022/04/06 05:29:09;;;;;;;11.40;9.57;;;;;;;8.17;92.79;99217.73;1700619;84;21539;-76
2022/04/06 05:31:36;;;;;;;11.23;9.80;;;;;;;8.20;92.88;99212.41;1700601;84;21027;-76
2022/04/06 05:34:03;;;;;;;11.00;9.30;;;;;;;8.22;92.84;99213.63;1700675;84;22143;-76
2022/04/06 05:36:30;;;;;;;10.30;9.17;;;;;;;8.24;92.78;99221.77;1700563;84;21035;-76
2022/04/06 05:38:58;;;;;;;11.03;9.47;;;;;;;8.25;92.85;99226.06;1700552;84;21051;-76
2022/04/06 05:41:25;;;;;;;11.33;9.97;;;;;;;8.27;92.91;99209.04;1700383;83;21106;-75
2022/04/06 05:43:52;;;;;;;12.40;9.30;;;;;;;8.30;92.86;99222.41;1700539;84;21023;-77
2022/04/06 05:46:19;;;;;;;11.20;9.77;;;;;;;8.32;92.84;99224.50;1700472;84;21952;-77
2022/04/06 05:48:46;;;;;;;12.17;10.10;;;;;;;8.34;92.87;99226.55;1700459;84;20988;-75
2022/04/06 05:51:13;;;;;;;10.83;9.63;;;;;;;8.34;92.79;99222.20;1700583;84;21033;-76
2022/04/06 05:53:40;;;;;;;12.23;10.50;;;;;;;8.38;92.88;99230.27;1700661;84;20999;-76
2022/04/06 05:56:07;;;;;;;13.13;10.47;;;;;;;8.40;92.78;99230.25;1700767;84;21043;-76
2022/04/06 05:58:34;;;;;;;9.97;8.93;;;;;;;8.41;92.77;99229.31;1700627;84;21131;-76
2022/04/06 06:01:01;;;;;;;11.13;9.47;;;;;;;8.44;92.71;99238.30;1700703;84;21079;-76
2022/04/06 06:03:28;;;;;;;12.63;9.53;;;;;;;8.48;92.81;99242.48;1700546;84;21027;-77
2022/04/06 06:05:55;;;;;;;10.97;9.53;;;;;;;8.52;92.88;99243.17;1700671;84;21018;-76
2022/04/06 06:08:22;;;;;;;11.23;9.37;;;;;;;8.56;92.91;99242.94;1700591;84;21007;-75
2022/04/06 06:10:49;;;;;;;10.37;9.10;;;;;;;8.63;92.81;99253.96;1698877;83;21114;-75
2022/04/06 06:13:16;;;;;;;11.30;9.60;;;;;;;8.70;92.87;99247.08;1694697;84;21028;-75
2022/04/06 06:15:43;;;;;;;10.60;9.37;;;;;;;8.79;92.87;99251.01;1698815;82;21553;-76
2022/04/06 06:18:11;;;;;;;11.20;8.93;;;;;;;8.86;92.82;99239.32;1700718;84;21000;-75
2022/04/06 06:20:38;;;;;;;9.73;8.53;;;;;;;8.93;92.80;99240.73;1700674;84;21044;-75
2022/04/06 06:23:05;;;;;;;10.80;8.90;;;;;;;8.98;92.60;99246.17;1700525;84;21324;-75
2022/04/06 06:25:32;;;;;;;11.23;9.07;;;;;;;9.00;92.49;99246.48;1700608;84;20959;-76
2022/04/06 06:27:58;;;;;;;10.93;8.93;;;;;;;9.03;92.32;99251.56;1710687;83;21087;-75
2022/04/06 06:30:27;;;;;;;10.20;8.83;;;;;;;9.05;92.28;99244.97;1708043;82;21074;-75
2022/04/06 06:32:54;;;;;;;10.77;8.90;;;;;;;9.09;92.19;99255.64;1700543;84;21052;-74
2022/04/06 06:35:24;;;;;;;10.10;8.97;;;;;;;9.12;92.15;99253.75;1700428;84;21084;-79
2022/04/06 06:37:54;;;;;;;10.10;8.63;;;;;;;9.17;92.05;99252.19;1700425;84;21502;-75
2022/04/06 06:40:25;;;;;;;10.73;8.23;;;;;;;9.23;92.00;99248.42;1700769;84;21039;-75
2022/04/06 06:42:52;;;;;;;9.87;8.47;;;;;;;9.27;91.91;99253.91;1700417;84;21004;-75
2022/04/06 06:45:19;;;;;;;9.67;7.90;;;;;;;9.29;91.75;99258.13;1673243;84;21091;-77
2022/04/06 06:47:47;;;;;;;11.23;8.43;;;;;;;9.32;91.73;99258.45;1699416;83;21886;-75
2022/04/06 06:50:16;;;;;;;11.30;8.60;;;;;;;9.36;91.65;99259.97;1695443;84;21004;-75
2022/04/06 06:52:44;;;;;;;8.73;7.07;;;;;;;9.40;91.55;99256.30;1695178;84;21039;-77
2022/04/06 06:55:11;;;;;;;10.20;7.73;;;;;;;9.45;91.47;99266.06;1711780;83;21051;-75
2022/04/06 06:57:38;;;;;;;9.20;7.40;;;;;;;9.49;91.22;99257.59;1725516;83;21555;-76
2022/04/06 07:00:07;;;;;;;8.67;7.10;;;;;;;9.55;91.12;99264.66;1725962;83;21092;-75
2022/04/06 07:02:34;;;;;;;8.57;6.83;;;;;;;9.60;91.07;99269.20;1701209;83;21486;-75
2022/04/06 07:05:01;;;;;;;8.43;6.53;;;;;;;9.67;90.92;99274.11;1725769;83;21035;-71
2022/04/06 07:07:28;;;;;;;7.80;7.00;;;;;;;9.74;90.81;99280.73;1725442;83;20988;-76
2022/04/06 07:09:55;;;;;;;7.70;6.90;;;;;;;9.80;90.68;99277.79;1725881;83;21568;-73
2022/04/06 07:12:21;;;;;;;7.97;7.17;;;;;;;9.84;90.55;99270.18;1725452;83;21137;-76
2022/04/06 07:14:48;;;;;;;7.30;6.10;;;;;;;9.89;90.40;99277.30;1725812;83;21125;-74
2022/04/06 07:17:17;;;;;;;6.97;5.97;;;;;;;9.90;90.25;99279.02;1725352;83;21082;-75
2022/04/06 07:19:45;;;;;;;8.30;6.60;;;;;;;9.92;90.02;99271.06;1725668;82;20992;-74
2022/04/06 07:22:12;;;;;;;6.93;5.83;;;;;;;9.93;89.95;99278.02;1725454;83;21548;-74
2022/04/06 07:24:40;;;;;;;7.50;6.17;;;;;;;9.92;89.71;99269.31;1725582;83;21134;-74
2022/04/06 07:27:07;;;;;;;8.70;6.70;;;;;;;9.93;89.66;99270.16;1725693;83;21046;-74
2022/04/06 07:29:34;;;;;;;7.23;6.00;;;;;;;9.93;89.57;99277.55;1725529;83;21056;-76
2022/04/06 07:32:02;;;;;;;7.27;5.87;;;;;;;9.92;89.46;99274.55;1725421;83;21000;-72
2022/04/06 07:34:29;;;;;;;7.27;6.03;;;;;;;9.94;89.46;99277.91;1725619;83;21035;-73
2022/04/06 07:36:57;;;;;;;8.10;6.30;;;;;;;9.95;89.27;99277.44;1725479;83;39068;-77
2022/04/06 07:39:26;;;;;;;7.83;6.43;;;;;;;9.96;89.16;99276.54;1725379;83;21055;-75
2022/04/06 07:41:55;;;;;;;8.00;6.77;;;;;;;9.98;89.08;99276.84;1715979;82;21053;-75
2022/04/06 07:44:21;;;;;;;8.23;7.17;;;;;;;10.02;89.07;99276.20;1691034;84;21034;-74
2022/04/06 07:46:48;;;;;;;7.70;6.80;;;;;;;10.05;88.93;99270.80;1703407;84;21007;-74
2022/04/06 07:49:15;;;;;;;8.53;7.37;;;;;;;10.05;88.68;99267.72;1703273;84;21690;-74
2022/04/06 07:51:42;;;;;;;8.83;7.23;;;;;;;10.10;88.70;99271.88;1703072;84;21671;-75
2022/04/06 07:54:09;;;;;;;8.17;7.20;;;;;;;10.17;88.72;99267.99;1703116;84;21066;-74
2022/04/06 07:56:37;;;;;;;9.43;7.90;;;;;;;10.27;88.57;99270.55;1712575;83;21596;-76
2022/04/06 07:59:04;;;;;;;9.25;6.55;;;;;;;10.41;88.76;99271.11;1720889;83;21043;-72
2022/04/06 08:01:31;;;;;;;8.77;7.83;;;;;;;10.53;88.25;99265.66;1708275;83;21188;-73
2022/04/06 08:03:58;;;;;;;9.40;7.50;;;;;;;10.62;88.30;99265.17;1702377;83;22372;-71
2022/04/06 08:06:25;;;;;;;8.23;6.90;;;;;;;10.73;87.94;99260.64;1699759;83;21050;-76
2022/04/06 08:08:53;;;;;;;11.22;7.10;;;;;;;10.83;87.87;99270.50;1703871;83;21079;-79
2022/04/06 08:11:20;;;;;;;7.93;6.90;;;;;;;10.92;87.55;99276.56;1703175;84;21070;-78
2022/04/06 08:13:48;;;;;;;8.65;6.83;;;;;;;11.06;87.71;99261.36;1703375;84;21163;-73
2022/04/06 08:16:15;;;;;;;8.45;7.55;;;;;;;11.20;87.33;99268.91;1703287;84;21083;-78
2022/04/06 08:18:43;;;;;;;8.98;7.33;;;;;;;11.28;86.90;99252.23;1703212;84;21481;-81
2022/04/06 08:21:10;;;;;;;9.85;7.60;;;;;;;11.24;86.29;99255.98;1697163;83;21448;-74
2022/04/06 08:23:37;;;;;;;9.40;6.92;;;;;;;11.19;85.74;99269.81;1694544;84;21048;-75
2022/04/06 08:26:04;;;;;;;10.80;6.40;;;;;;;11.23;85.81;99265.62;1694727;84;21121;-73
2022/04/06 08:28:30;;;;;;;7.90;6.80;;;;;;;11.36;86.17;99262.68;1694899;84;21003;-72
2022/04/06 08:30:58;;;;;;;8.25;6.53;;;;;;;11.48;85.82;99265.52;1694556;84;21059;-74
2022/04/06 08:33:25;;;;;;;9.33;6.80;;;;;;;11.63;85.67;99267.22;1694736;84;21015;-73
2022/04/06 08:35:53;;;;;;;11.93;7.47;;;;;;;11.73;85.51;99276.25;1694648;84;21508;-75
2022/04/06 08:38:19;;;;;;;8.03;6.55;;;;;;;11.80;84.80;99276.70;1694620;84;21166;-75
2022/04/06 08:40:47;;;;;;;9.40;7.40;;;;;;;11.74;84.31;99281.86;1694598;84;21027;-74
2022/04/06 08:43:15;;;;;;;11.12;6.72;;;;;;;11.72;84.13;99272.38;1694602;84;21039;-73
2022/04/06 08:45:41;;;;;;;9.68;7.03;;;;;;;11.70;83.99;99281.68;1694601;84;21059;-73
2022/04/06 08:48:11;;;;;;;7.62;5.87;;;;;;;11.74;83.68;99280.55;1694572;84;21042;-74
2022/04/06 08:50:39;;;;;;;10.17;5.80;;;;;;;12.02;84.17;99278.92;1694802;84;21132;-72
2022/04/06 08:53:07;;;;;;;9.80;5.67;;;;;;;12.02;84.17;99278.92;1694591;84;21514;-72
2022/04/06 08:55:35;;;;;;;8.85;5.72;;;;;;;12.19;83.89;99274.81;1694582;84;21027;-73
2022/04/06 08:58:03;;;;;;;9.65;4.97;;;;;;;12.30;83.01;99283.31;1694626;84;20999;-72
2022/04/06 09:00:32;;;;;;;7.83;4.62;;;;;;;12.23;81.75;99293.84;1694866;84;21026;-71
2022/04/06 09:03:00;;;;;;;6.15;4.58;;;;;;;12.27;81.75;99284.83;1694554;84;21188;-71
2022/04/06 09:05:32;;;;;;;7.20;4.25;;;;;;;12.39;81.61;99278.83;1694851;84;21028;-73
2022/04/06 09:08:01;;;;;;;8.83;5.05;;;;;;;12.51;81.47;99279.83;1694855;84;21035;-74
2022/04/06 09:10:37;;;;;;;9.85;5.55;;;;;;;12.58;80.59;99278.52;1694632;84;21012;-72
2022/04/06 09:13:20;;;;;;;8.55;5.40;;;;;;;12.61;80.42;99286.20;1694827;84;21266;-72
2022/04/06 09:15:50;;;;;;;8.85;4.90;;;;;;;12.62;79.99;99280.47;1694691;84;21104;-69
2022/04/06 09:18:24;;;;;;;6.65;4.47;;;;;;;12.64;79.24;99283.38;1694595;84;21453;-72
2022/04/06 09:20:48;;;;;;;7.37;4.53;;;;;;;12.58;78.72;99277.65;1694248;84;21007;-73
2022/04/06 09:23:18;;;;;;;6.15;5.00;;;;;;;12.57;78.70;99287.33;1694582;84;21623;-74
2022/04/06 09:25:45;;;;;;;7.75;5.58;;;;;;;12.59;78.36;99272.78;1667499;84;21095;-70
2022/04/06 09:28:14;;;;;;;9.15;5.30;;;;;;;12.59;78.31;99273.62;1699603;82;21125;-71
2022/04/06 09:30:45;;;;;;;7.30;5.60;;;;;;;12.64;78.52;99284.70;1700773;84;20944;-71
2022/04/06 09:33:20;;;;;;;;;;;;;;;12.62;77.60;99268.17;1679557;84;21024;-71
2022/04/06 09:35:48;;;;;;;6.17;4.65;;;;;;;12.62;77.55;99272.11;1700446;84;20181;-72
2022/04/06 09:38:25;;;;;;;7.92;4.83;;;;;;;12.60;77.74;99270.04;1700364;84;21039;-71
2022/04/06 09:41:06;;;;;;;7.35;4.37;;;;;;;12.58;77.61;99271.95;1695913;84;21954;-72
2022/04/06 09:43:33;;;;;;;;;;;;;;;12.58;77.47;99266.69;1697268;84;21027;-73
2022/04/06 09:49:24;;;;;;;6.65;5.10;;;;;;;12.47;77.19;99272.62;1696729;84;21512;-71
2022/04/06 09:51:52;;;;;;;6.30;5.17;;;;;;;12.38;76.70;99260.51;1696945;84;21023;-71
2022/04/06 09:54:19;;;;;;;8.05;5.70;;;;;;;12.32;76.47;99261.73;1696771;84;21599;-71
2022/04/06 09:56:47;;;;;;;6.03;5.42;;;;;;;12.36;76.88;99265.01;1697066;84;21035;-71
2022/04/06 09:59:15;;;;;;;8.68;5.85;;;;;;;12.45;76.64;99261.83;1696802;84;21490;-71
2022/04/06 10:01:47;;;;;;;10.38;7.10;;;;;;;12.54;76.84;99264.34;1696985;84;20984;-71
2022/04/06 10:04:19;;;;;;;10.00;6.72;;;;;;;12.61;76.33;99267.80;1696963;84;20996;-71
2022/04/06 10:06:47;;;;;;;8.63;6.53;;;;;;;12.64;76.03;99268.09;1697111;84;21505;-71
2022/04/06 10:09:14;;;;;;;7.70;6.20;;;;;;;12.69;76.02;99250.20;1696779;84;21040;-71
2022/04/06 10:11:43;;;;;;;13.03;6.90;;;;;;;12.75;75.76;99262.11;1697164;84;21039;-72
2022/04/06 10:14:11;;;;;;;10.13;6.70;;;;;;;12.84;75.84;99256.28;1696788;84;21001;-71
2022/04/06 10:16:40;;;;;;;10.63;6.65;;;;;;;12.91;75.46;99249.22;1697043;84;21079;-71
2022/04/06 10:19:10;;;;;;;7.75;6.37;;;;;;;12.97;75.12;99254.55;1696753;84;21948;-70
2022/04/06 10:22:04;;;;;;;9.45;6.50;;;;;;;12.99;74.63;99254.44;1698493;84;21031;-71
2022/04/06 10:25:11;;;;;;;8.05;6.37;;;;;;;12.96;73.98;99250.22;1701159;84;21027;-71
2022/04/06 10:27:46;;;;;;;9.83;6.67;;;;;;;12.91;73.86;99247.03;1701828;84;21003;-71
2022/04/06 10:30:22;;;;;;;9.80;6.83;;;;;;;12.81;74.18;99248.13;1700115;84;21030;-71
2022/04/06 10:32:51;;;;;;;10.35;6.87;;;;;;;12.76;74.03;99241.00;1675475;85;22058;-71
2022/04/06 10:35:24;;;;;;;9.15;6.70;;;;;;;12.67;73.76;99235.86;1687340;85;20988;-71
2022/04/06 10:38:05;;;;;;;9.38;6.20;;;;;;;12.57;73.42;99241.80;1675439;85;21038;-71
2022/04/06 10:40:49;;;;;;;10.72;5.37;;;;;;;12.47;73.67;99245.47;1687412;85;21056;-71
2022/04/06 10:43:40;;;;;;;8.65;5.60;;;;;;;12.39;73.36;99247.29;1687674;85;21020;-71
2022/04/06 10:46:10;;;;;;;10.03;5.40;;;;;;;12.31;73.33;99246.09;1675189;85;21109;-71
2022/04/06 10:49:10;;;;;;;8.55;4.95;;;;;;;12.24;73.35;99239.87;1686896;85;21039;-71
2022/04/06 10:51:50;;;;;;;7.28;4.72;;;;;;;12.19;73.59;99236.72;1687316;84;21585;-71
2022/04/06 10:54:23;;;;;;;7.75;5.25;;;;;;;12.14;73.59;99230.91;1687649;85;21548;-72
2022/04/06 10:56:53;;;;;;;7.40;4.90;;;;;;;12.08;73.33;99228.63;1685436;83;21450;-71
2022/04/06 10:59:28;;;;;;;7.75;4.70;;;;;;;12.01;72.99;99224.72;1683356;84;21870;-71
2022/04/06 11:02:21;;;;;;;7.37;5.00;;;;;;;11.97;73.25;99229.32;1736621;82;21014;-71
2022/04/06 11:04:49;;;;;;;7.80;4.42;;;;;;;11.98;73.58;99225.75;1712937;83;20992;-71
2022/04/06 11:10:25;;;;;;;5.72;3.92;;;;;;;12.03;72.98;99232.04;1696866;83;20992;-70
2022/04/06 11:13:01;;;;;;;7.60;4.37;;;;;;;12.02;73.11;99232.48;1690610;84;21182;-70
2022/04/06 11:15:41;;;;;;;6.40;3.80;;;;;;;12.05;72.94;99231.01;1690772;84;21004;-73
2022/04/06 11:18:47;;;;;;;7.47;4.15;;;;;;;12.05;72.87;99228.38;1690652;84;20992;-74
2022/04/06 11:21:15;;;;;;;6.15;3.77;;;;;;;12.11;73.09;99228.91;1697909;83;21741;-74
2022/04/06 11:23:43;;;;;;;6.25;3.72;;;;;;;12.23;72.80;99231.64;1697539;84;21048;-70
2022/04/06 11:26:10;;;;;;;7.20;4.47;;;;;;;12.34;72.56;99238.01;1697559;84;21049;-71
2022/04/06 11:28:37;;;;;;;7.83;4.25;;;;;;;12.42;72.42;99235.74;1697496;84;21497;-72
2022/04/06 11:31:04;;;;;;;7.78;4.12;;;;;;;12.47;72.34;99234.52;1697511;84;21068;-72
2022/04/06 11:33:40;;;;;;;5.60;3.90;;;;;;;12.52;72.17;99239.45;1677370;84;21082;-70
2022/04/06 11:36:16;;;;;;;5.92;4.08;;;;;;;12.52;71.34;99227.62;1684697;84;21564;-70
2022/04/06 11:38:49;;;;;;;7.95;4.10;;;;;;;12.49;71.18;99226.03;1675052;85;21121;-70
2022/04/06 11:41:19;;;;;;;7.70;4.03;;;;;;;12.50;70.82;99222.97;1648573;87;21034;-71
2022/04/06 11:43:47;;;;;;;5.35;3.65;;;;;;;12.50;70.96;99216.39;1679789;84;21011;-70
2022/04/06 11:46:14;;;;;;;6.72;3.17;;;;;;;12.54;70.58;99216.55;1650863;85;20999;-70
2022/04/06 11:48:45;;;;;;;6.45;3.27;;;;;;;12.59;70.17;99224.16;1695059;84;21019;-70
2022/04/06 11:51:12;;;;;;;6.70;3.05;;;;;;;12.63;69.64;99210.70;1680339;84;21122;-72
2022/04/06 11:53:39;;;;;;;5.10;2.65;;;;;;;12.73;69.60;99210.96;1672122;85;21528;-72
2022/04/06 11:56:08;;;;;;;4.53;2.85;;;;;;;12.81;69.06;99206.05;1682096;85;21088;-70